Arch Rock, Pennsylvania
Current Conditions -  °F | °C
As of 6:53 PM on Thursday 18 Dec 2014 (Local Time) from KSEG Reporting Station
Overcast Overcast  
Wind Chill: -1°   Ceiling: 2800
Heat Index:   Visibility: 10mi
Dew Point: -4°   Wind: 5mph
Humidity: 67%   Direction: 290°WNW
Pressure: 30.08"   Gusts: NA
Location:  40.5853°N, 77.3611°W
Report Text: KSEG 182353Z AUTO 29004KT 10SM OVC028 02/M04 A3008 RMK AO2 SLP189 T00171039 10022 20017 51001
Loading
Personal Weather Stations






























Interactive Weather Map New forecast layout! Learn more

10-Day Weather Forecast

Advertisements
Track Severe Weather on mobile